sensor_id;sensor_type;location;lat;lon;timestamp;temperature;humidity
78647;DHT22;67961;43.460;3.762;2023-08-31T00:02:13;20.70;62.20
78647;DHT22;67961;43.460;3.762;2023-08-31T00:04:38;20.70;61.70
78647;DHT22;67961;43.460;3.762;2023-08-31T00:07:05;20.70;61.40
78647;DHT22;67961;43.460;3.762;2023-08-31T00:09:30;20.80;61.40
78647;DHT22;67961;43.460;3.762;2023-08-31T00:11:56;20.70;61.20
78647;DHT22;67961;43.460;3.762;2023-08-31T00:14:25;20.70;61.30
78647;DHT22;67961;43.460;3.762;2023-08-31T00:16:52;20.70;61.10
78647;DHT22;67961;43.460;3.762;2023-08-31T00:19:17;20.70;60.70
78647;DHT22;67961;43.460;3.762;2023-08-31T00:21:43;20.80;60.60
78647;DHT22;67961;43.460;3.762;2023-08-31T00:24:09;20.80;60.60
78647;DHT22;67961;43.460;3.762;2023-08-31T00:26:38;20.70;61.10
78647;DHT22;67961;43.460;3.762;2023-08-31T00:29:06;20.80;61.60
78647;DHT22;67961;43.460;3.762;2023-08-31T00:31:32;20.70;62.00
78647;DHT22;67961;43.460;3.762;2023-08-31T00:34:02;20.70;62.60
78647;DHT22;67961;43.460;3.762;2023-08-31T00:36:32;20.60;63.40
78647;DHT22;67961;43.460;3.762;2023-08-31T00:39:02;20.50;64.00
78647;DHT22;67961;43.460;3.762;2023-08-31T00:41:28;20.30;64.10
78647;DHT22;67961;43.460;3.762;2023-08-31T00:43:54;20.30;64.20
78647;DHT22;67961;43.460;3.762;2023-08-31T00:46:19;20.30;64.20
78647;DHT22;67961;43.460;3.762;2023-08-31T00:48:45;20.30;64.40
78647;DHT22;67961;43.460;3.762;2023-08-31T00:51:11;20.30;64.70
78647;DHT22;67961;43.460;3.762;2023-08-31T00:53:36;20.20;65.00
78647;DHT22;67961;43.460;3.762;2023-08-31T00:56:02;20.00;65.50
78647;DHT22;67961;43.460;3.762;2023-08-31T00:58:29;20.00;65.90
78647;DHT22;67961;43.460;3.762;2023-08-31T01:12:21;19.90;66.50
78647;DHT22;67961;43.460;3.762;2023-08-31T01:14:57;19.90;66.60
78647;DHT22;67961;43.460;3.762;2023-08-31T01:17:27;19.80;66.70
78647;DHT22;67961;43.460;3.762;2023-08-31T01:19:55;19.90;66.70
78647;DHT22;67961;43.460;3.762;2023-08-31T01:22:38;19.80;66.70
78647;DHT22;67961;43.460;3.762;2023-08-31T01:25:06;19.80;66.80
78647;DHT22;67961;43.460;3.762;2023-08-31T01:27:35;19.70;66.90
78647;DHT22;67961;43.460;3.762;2023-08-31T01:30:02;19.70;67.00
78647;DHT22;67961;43.460;3.762;2023-08-31T01:32:29;19.50;67.10
78647;DHT22;67961;43.460;3.762;2023-08-31T01:34:55;19.50;67.20
78647;DHT22;67961;43.460;3.762;2023-08-31T01:37:51;19.50;67.30
78647;DHT22;67961;43.460;3.762;2023-08-31T01:40:23;19.50;67.20
78647;DHT22;67961;43.460;3.762;2023-08-31T01:42:50;19.50;67.40
78647;DHT22;67961;43.460;3.762;2023-08-31T01:45:21;19.50;67.20
78647;DHT22;67961;43.460;3.762;2023-08-31T01:47:48;19.50;67.20
78647;DHT22;67961;43.460;3.762;2023-08-31T01:50:14;19.50;67.10
78647;DHT22;67961;43.460;3.762;2023-08-31T01:52:40;19.50;66.80
78647;DHT22;67961;43.460;3.762;2023-08-31T01:55:06;19.50;66.80
78647;DHT22;67961;43.460;3.762;2023-08-31T01:57:32;19.50;66.80
78647;DHT22;67961;43.460;3.762;2023-08-31T01:59:59;19.50;67.00
78647;DHT22;67961;43.460;3.762;2023-08-31T02:02:24;19.50;67.10
78647;DHT22;67961;43.460;3.762;2023-08-31T02:04:50;19.40;67.10
78647;DHT22;67961;43.460;3.762;2023-08-31T02:07:18;19.50;66.90
78647;DHT22;67961;43.460;3.762;2023-08-31T02:09:44;19.50;66.80
78647;DHT22;67961;43.460;3.762;2023-08-31T02:12:10;19.50;66.50
78647;DHT22;67961;43.460;3.762;2023-08-31T02:14:36;19.50;66.40
78647;DHT22;67961;43.460;3.762;2023-08-31T02:17:02;19.50;66.40
78647;DHT22;67961;43.460;3.762;2023-08-31T02:19:28;19.50;66.40
78647;DHT22;67961;43.460;3.762;2023-08-31T02:21:53;19.50;66.30
78647;DHT22;67961;43.460;3.762;2023-08-31T02:24:19;19.70;66.10
78647;DHT22;67961;43.460;3.762;2023-08-31T02:26:45;19.70;66.00
78647;DHT22;67961;43.460;3.762;2023-08-31T02:29:11;19.70;66.20
78647;DHT22;67961;43.460;3.762;2023-08-31T02:31:36;19.70;66.10
78647;DHT22;67961;43.460;3.762;2023-08-31T02:34:03;19.70;66.30
78647;DHT22;67961;43.460;3.762;2023-08-31T02:36:29;19.70;66.30
78647;DHT22;67961;43.460;3.762;2023-08-31T02:38:56;19.70;66.40
78647;DHT22;67961;43.460;3.762;2023-08-31T02:41:22;19.70;66.30
78647;DHT22;67961;43.460;3.762;2023-08-31T02:43:50;19.70;66.20
78647;DHT22;67961;43.460;3.762;2023-08-31T02:46:17;19.70;66.40
78647;DHT22;67961;43.460;3.762;2023-08-31T02:48:43;19.70;66.40
78647;DHT22;67961;43.460;3.762;2023-08-31T02:51:09;19.70;66.50
78647;DHT22;67961;43.460;3.762;2023-08-31T02:53:35;19.70;66.40
78647;DHT22;67961;43.460;3.762;2023-08-31T02:56:01;19.70;66.50
78647;DHT22;67961;43.460;3.762;2023-08-31T02:58:27;19.60;66.60
78647;DHT22;67961;43.460;3.762;2023-08-31T03:00:53;19.60;66.60
78647;DHT22;67961;43.460;3.762;2023-08-31T03:03:19;19.60;66.60
78647;DHT22;67961;43.460;3.762;2023-08-31T03:05:45;19.50;66.70
78647;DHT22;67961;43.460;3.762;2023-08-31T03:08:11;19.50;66.80
78647;DHT22;67961;43.460;3.762;2023-08-31T03:10:37;19.60;66.60
78647;DHT22;67961;43.460;3.762;2023-08-31T03:13:03;19.60;66.70
78647;DHT22;67961;43.460;3.762;2023-08-31T03:15:29;19.50;66.70
78647;DHT22;67961;43.460;3.762;2023-08-31T03:17:54;19.50;67.00
78647;DHT22;67961;43.460;3.762;2023-08-31T03:20:20;19.50;67.00
78647;DHT22;67961;43.460;3.762;2023-08-31T03:22:46;19.50;66.80
78647;DHT22;67961;43.460;3.762;2023-08-31T03:25:11;19.40;67.30
78647;DHT22;67961;43.460;3.762;2023-08-31T03:27:37;19.40;67.20
78647;DHT22;67961;43.460;3.762;2023-08-31T03:30:03;19.40;67.40
78647;DHT22;67961;43.460;3.762;2023-08-31T03:32:29;19.40;67.30
78647;DHT22;67961;43.460;3.762;2023-08-31T03:34:55;19.40;67.40
78647;DHT22;67961;43.460;3.762;2023-08-31T03:37:20;19.40;67.20
78647;DHT22;67961;43.460;3.762;2023-08-31T03:39:50;19.40;67.10
78647;DHT22;67961;43.460;3.762;2023-08-31T03:42:15;19.40;67.30
78647;DHT22;67961;43.460;3.762;2023-08-31T03:44:41;19.30;67.30
78647;DHT22;67961;43.460;3.762;2023-08-31T03:47:07;19.30;67.30
78647;DHT22;67961;43.460;3.762;2023-08-31T03:49:32;19.30;67.50
78647;DHT22;67961;43.460;3.762;2023-08-31T03:51:59;19.20;67.60
78647;DHT22;67961;43.460;3.762;2023-08-31T03:54:24;19.10;68.00
78647;DHT22;67961;43.460;3.762;2023-08-31T03:56:50;19.10;68.30
78647;DHT22;67961;43.460;3.762;2023-08-31T03:59:16;19.10;68.40
78647;DHT22;67961;43.460;3.762;2023-08-31T04:01:42;19.00;68.70
78647;DHT22;67961;43.460;3.762;2023-08-31T04:04:07;19.10;68.60
78647;DHT22;67961;43.460;3.762;2023-08-31T04:06:34;19.20;68.30
78647;DHT22;67961;43.460;3.762;2023-08-31T04:08:59;19.20;68.10
78647;DHT22;67961;43.460;3.762;2023-08-31T04:11:25;19.30;68.10
78647;DHT22;67961;43.460;3.762;2023-08-31T04:13:51;19.40;67.70
78647;DHT22;67961;43.460;3.762;2023-08-31T04:16:17;19.40;67.50
78647;DHT22;67961;43.460;3.762;2023-08-31T04:18:43;19.40;67.20
78647;DHT22;67961;43.460;3.762;2023-08-31T04:21:08;19.30;67.20
78647;DHT22;67961;43.460;3.762;2023-08-31T04:23:34;19.20;66.10
78647;DHT22;67961;43.460;3.762;2023-08-31T04:26:00;19.20;64.90
78647;DHT22;67961;43.460;3.762;2023-08-31T04:28:26;19.10;64.10
78647;DHT22;67961;43.460;3.762;2023-08-31T04:30:52;19.10;63.50
78647;DHT22;67961;43.460;3.762;2023-08-31T04:33:18;19.10;62.50
78647;DHT22;67961;43.460;3.762;2023-08-31T04:35:44;19.10;61.80
78647;DHT22;67961;43.460;3.762;2023-08-31T04:38:09;19.00;61.80
78647;DHT22;67961;43.460;3.762;2023-08-31T04:40:35;19.00;61.80
78647;DHT22;67961;43.460;3.762;2023-08-31T04:43:02;19.00;61.80
78647;DHT22;67961;43.460;3.762;2023-08-31T04:45:29;18.90;61.80
78647;DHT22;67961;43.460;3.762;2023-08-31T04:47:56;18.90;61.70
78647;DHT22;67961;43.460;3.762;2023-08-31T04:50:21;18.90;61.30
78647;DHT22;67961;43.460;3.762;2023-08-31T04:52:47;18.90;61.00
78647;DHT22;67961;43.460;3.762;2023-08-31T04:55:13;19.00;61.20
78647;DHT22;67961;43.460;3.762;2023-08-31T04:57:38;19.00;60.80
78647;DHT22;67961;43.460;3.762;2023-08-31T05:00:06;18.90;61.00
78647;DHT22;67961;43.460;3.762;2023-08-31T05:02:35;18.90;61.30
78647;DHT22;67961;43.460;3.762;2023-08-31T05:05:01;18.90;61.00
78647;DHT22;67961;43.460;3.762;2023-08-31T05:07:28;18.80;61.20
78647;DHT22;67961;43.460;3.762;2023-08-31T05:09:53;18.80;61.20
78647;DHT22;67961;43.460;3.762;2023-08-31T05:12:19;18.80;61.00
78647;DHT22;67961;43.460;3.762;2023-08-31T05:14:45;18.90;60.90
78647;DHT22;67961;43.460;3.762;2023-08-31T05:17:10;18.80;61.00
78647;DHT22;67961;43.460;3.762;2023-08-31T05:19:36;18.80;61.20
78647;DHT22;67961;43.460;3.762;2023-08-31T05:22:01;18.80;61.40
78647;DHT22;67961;43.460;3.762;2023-08-31T05:24:27;18.90;60.90
78647;DHT22;67961;43.460;3.762;2023-08-31T05:26:53;19.00;60.90
78647;DHT22;67961;43.460;3.762;2023-08-31T05:29:18;19.10;60.70
78647;DHT22;67961;43.460;3.762;2023-08-31T05:31:44;19.10;60.90
78647;DHT22;67961;43.460;3.762;2023-08-31T05:34:10;19.20;60.70
78647;DHT22;67961;43.460;3.762;2023-08-31T05:36:36;19.30;60.30
78647;DHT22;67961;43.460;3.762;2023-08-31T05:39:02;19.20;60.50
78647;DHT22;67961;43.460;3.762;2023-08-31T05:41:28;19.30;60.30
78647;DHT22;67961;43.460;3.762;2023-08-31T05:43:54;19.40;60.40
78647;DHT22;67961;43.460;3.762;2023-08-31T05:46:19;19.40;60.20
78647;DHT22;67961;43.460;3.762;2023-08-31T05:48:45;19.30;60.50
78647;DHT22;67961;43.460;3.762;2023-08-31T05:51:10;19.40;60.20
78647;DHT22;67961;43.460;3.762;2023-08-31T05:53:36;19.20;60.10
78647;DHT22;67961;43.460;3.762;2023-08-31T05:56:03;19.30;60.00
78647;DHT22;67961;43.460;3.762;2023-08-31T05:58:33;19.40;60.00
78647;DHT22;67961;43.460;3.762;2023-08-31T06:01:00;19.40;60.00
78647;DHT22;67961;43.460;3.762;2023-08-31T06:03:26;19.40;59.60
78647;DHT22;67961;43.460;3.762;2023-08-31T06:05:51;19.40;59.80
78647;DHT22;67961;43.460;3.762;2023-08-31T06:08:17;19.50;59.00
78647;DHT22;67961;43.460;3.762;2023-08-31T06:10:43;19.40;58.90
78647;DHT22;67961;43.460;3.762;2023-08-31T06:13:08;19.40;58.80
78647;DHT22;67961;43.460;3.762;2023-08-31T06:15:34;19.40;58.80
78647;DHT22;67961;43.460;3.762;2023-08-31T06:18:00;19.40;58.70
78647;DHT22;67961;43.460;3.762;2023-08-31T06:20:25;19.40;58.80
78647;DHT22;67961;43.460;3.762;2023-08-31T06:22:51;19.40;58.60
78647;DHT22;67961;43.460;3.762;2023-08-31T06:25:16;19.40;58.70
78647;DHT22;67961;43.460;3.762;2023-08-31T06:27:44;19.40;58.60
78647;DHT22;67961;43.460;3.762;2023-08-31T06:30:10;19.40;58.40
78647;DHT22;67961;43.460;3.762;2023-08-31T06:32:45;19.50;58.40
78647;DHT22;67961;43.460;3.762;2023-08-31T06:35:11;19.50;58.30
78647;DHT22;67961;43.460;3.762;2023-08-31T06:37:46;19.50;58.50
78647;DHT22;67961;43.460;3.762;2023-08-31T06:40:12;19.50;58.50
78647;DHT22;67961;43.460;3.762;2023-08-31T06:42:38;19.50;58.10
78647;DHT22;67961;43.460;3.762;2023-08-31T06:45:05;19.50;58.20
78647;DHT22;67961;43.460;3.762;2023-08-31T06:47:31;19.50;57.80
78647;DHT22;67961;43.460;3.762;2023-08-31T06:49:57;19.60;58.00
78647;DHT22;67961;43.460;3.762;2023-08-31T06:52:26;19.60;57.40
78647;DHT22;67961;43.460;3.762;2023-08-31T06:54:52;19.70;57.00
78647;DHT22;67961;43.460;3.762;2023-08-31T06:57:21;19.60;56.70
78647;DHT22;67961;43.460;3.762;2023-08-31T06:59:47;19.60;56.60
78647;DHT22;67961;43.460;3.762;2023-08-31T07:02:14;19.70;56.70
78647;DHT22;67961;43.460;3.762;2023-08-31T07:04:39;19.70;56.50
78647;DHT22;67961;43.460;3.762;2023-08-31T07:07:06;19.70;55.80
78647;DHT22;67961;43.460;3.762;2023-08-31T07:09:31;19.70;55.20
78647;DHT22;67961;43.460;3.762;2023-08-31T07:11:57;19.80;55.20
78647;DHT22;67961;43.460;3.762;2023-08-31T07:14:23;19.90;55.00
78647;DHT22;67961;43.460;3.762;2023-08-31T07:16:49;19.90;54.60
78647;DHT22;67961;43.460;3.762;2023-08-31T07:19:15;20.00;54.00
78647;DHT22;67961;43.460;3.762;2023-08-31T07:21:41;20.00;53.90
78647;DHT22;67961;43.460;3.762;2023-08-31T07:24:07;20.00;52.80
78647;DHT22;67961;43.460;3.762;2023-08-31T07:26:33;20.00;52.70
78647;DHT22;67961;43.460;3.762;2023-08-31T07:29:00;20.10;52.50
78647;DHT22;67961;43.460;3.762;2023-08-31T07:31:27;20.10;52.10
78647;DHT22;67961;43.460;3.762;2023-08-31T07:33:52;20.30;52.00
78647;DHT22;67961;43.460;3.762;2023-08-31T07:36:18;20.30;52.00
78647;DHT22;67961;43.460;3.762;2023-08-31T07:38:44;20.30;51.50
78647;DHT22;67961;43.460;3.762;2023-08-31T07:41:09;20.40;51.20
78647;DHT22;67961;43.460;3.762;2023-08-31T07:43:35;20.50;51.10
78647;DHT22;67961;43.460;3.762;2023-08-31T07:46:00;20.50;50.40
78647;DHT22;67961;43.460;3.762;2023-08-31T07:48:26;20.60;50.20
78647;DHT22;67961;43.460;3.762;2023-08-31T07:50:52;20.70;49.80
78647;DHT22;67961;43.460;3.762;2023-08-31T07:53:17;20.70;49.70
78647;DHT22;67961;43.460;3.762;2023-08-31T07:55:54;20.70;49.30
78647;DHT22;67961;43.460;3.762;2023-08-31T07:58:23;20.80;49.20
78647;DHT22;67961;43.460;3.762;2023-08-31T08:00:52;20.80;48.90
78647;DHT22;67961;43.460;3.762;2023-08-31T08:03:17;20.90;48.30
78647;DHT22;67961;43.460;3.762;2023-08-31T08:05:43;20.90;48.30
78647;DHT22;67961;43.460;3.762;2023-08-31T08:08:09;21.00;48.50
78647;DHT22;67961;43.460;3.762;2023-08-31T08:10:35;21.10;48.30
78647;DHT22;67961;43.460;3.762;2023-08-31T08:13:01;21.10;47.80
78647;DHT22;67961;43.460;3.762;2023-08-31T08:15:27;21.30;47.60
78647;DHT22;67961;43.460;3.762;2023-08-31T08:17:52;21.40;46.80
78647;DHT22;67961;43.460;3.762;2023-08-31T08:20:19;21.50;46.80
78647;DHT22;67961;43.460;3.762;2023-08-31T08:22:45;21.60;46.50
78647;DHT22;67961;43.460;3.762;2023-08-31T08:25:10;21.70;46.20
78647;DHT22;67961;43.460;3.762;2023-08-31T08:27:36;21.80;46.20
78647;DHT22;67961;43.460;3.762;2023-08-31T08:30:03;21.90;45.80
78647;DHT22;67961;43.460;3.762;2023-08-31T08:32:33;22.00;45.90
78647;DHT22;67961;43.460;3.762;2023-08-31T08:34:58;22.30;45.30
78647;DHT22;67961;43.460;3.762;2023-08-31T08:37:24;22.50;45.00
78647;DHT22;67961;43.460;3.762;2023-08-31T08:39:50;22.80;44.10
78647;DHT22;67961;43.460;3.762;2023-08-31T08:42:18;23.10;43.90
78647;DHT22;67961;43.460;3.762;2023-08-31T08:44:44;23.30;43.00
78647;DHT22;67961;43.460;3.762;2023-08-31T08:47:11;23.60;42.60
78647;DHT22;67961;43.460;3.762;2023-08-31T08:49:37;23.80;42.30
78647;DHT22;67961;43.460;3.762;2023-08-31T08:52:04;24.30;42.10
78647;DHT22;67961;43.460;3.762;2023-08-31T08:54:30;24.70;41.10
78647;DHT22;67961;43.460;3.762;2023-08-31T08:56:56;25.20;40.30
78647;DHT22;67961;43.460;3.762;2023-08-31T08:59:23;25.30;40.10
78647;DHT22;67961;43.460;3.762;2023-08-31T09:01:49;25.60;40.30
78647;DHT22;67961;43.460;3.762;2023-08-31T09:04:15;25.80;40.00
78647;DHT22;67961;43.460;3.762;2023-08-31T09:06:40;26.10;39.80
78647;DHT22;67961;43.460;3.762;2023-08-31T09:09:09;26.30;40.00
78647;DHT22;67961;43.460;3.762;2023-08-31T09:11:35;26.50;39.80
78647;DHT22;67961;43.460;3.762;2023-08-31T09:14:19;26.60;40.30
78647;DHT22;67961;43.460;3.762;2023-08-31T09:16:47;26.90;40.00
78647;DHT22;67961;43.460;3.762;2023-08-31T09:19:20;27.10;39.20
78647;DHT22;67961;43.460;3.762;2023-08-31T09:21:47;27.30;39.40
78647;DHT22;67961;43.460;3.762;2023-08-31T09:24:13;27.50;39.00
78647;DHT22;67961;43.460;3.762;2023-08-31T09:26:39;27.50;39.30
78647;DHT22;67961;43.460;3.762;2023-08-31T09:29:06;27.60;38.70
78647;DHT22;67961;43.460;3.762;2023-08-31T09:31:32;27.80;39.20
78647;DHT22;67961;43.460;3.762;2023-08-31T09:33:58;27.70;38.20
78647;DHT22;67961;43.460;3.762;2023-08-31T09:36:23;27.90;39.10
78647;DHT22;67961;43.460;3.762;2023-08-31T09:38:49;28.10;38.10
78647;DHT22;67961;43.460;3.762;2023-08-31T09:41:15;28.10;38.00
78647;DHT22;67961;43.460;3.762;2023-08-31T09:43:41;28.10;38.30
78647;DHT22;67961;43.460;3.762;2023-08-31T09:46:08;28.10;38.20
78647;DHT22;67961;43.460;3.762;2023-08-31T09:48:34;28.30;37.20
78647;DHT22;67961;43.460;3.762;2023-08-31T09:51:04;28.20;38.30
78647;DHT22;67961;43.460;3.762;2023-08-31T09:53:31;28.30;37.80
78647;DHT22;67961;43.460;3.762;2023-08-31T09:55:57;28.30;38.10
78647;DHT22;67961;43.460;3.762;2023-08-31T09:58:23;28.40;37.00
78647;DHT22;67961;43.460;3.762;2023-08-31T10:00:51;28.30;38.00
78647;DHT22;67961;43.460;3.762;2023-08-31T10:03:17;28.40;38.90
78647;DHT22;67961;43.460;3.762;2023-08-31T10:05:44;28.30;37.60
78647;DHT22;67961;43.460;3.762;2023-08-31T10:08:11;28.30;37.70
78647;DHT22;67961;43.460;3.762;2023-08-31T10:10:38;28.40;37.40
78647;DHT22;67961;43.460;3.762;2023-08-31T10:13:05;28.50;37.00
78647;DHT22;67961;43.460;3.762;2023-08-31T10:15:34;28.70;35.30
78647;DHT22;67961;43.460;3.762;2023-08-31T10:18:04;28.90;35.30
78647;DHT22;67961;43.460;3.762;2023-08-31T10:20:31;29.00;37.70
78647;DHT22;67961;43.460;3.762;2023-08-31T10:23:03;29.20;38.00
78647;DHT22;67961;43.460;3.762;2023-08-31T10:28:24;29.20;36.80
78647;DHT22;67961;43.460;3.762;2023-08-31T10:31:03;29.10;36.70
78647;DHT22;67961;43.460;3.762;2023-08-31T10:36:21;29.30;36.10
78647;DHT22;67961;43.460;3.762;2023-08-31T10:38:59;29.30;36.00
78647;DHT22;67961;43.460;3.762;2023-08-31T10:41:25;29.30;36.60
78647;DHT22;67961;43.460;3.762;2023-08-31T10:43:55;29.50;35.90
78647;DHT22;67961;43.460;3.762;2023-08-31T10:46:34;29.50;35.80
78647;DHT22;67961;43.460;3.762;2023-08-31T10:51:28;29.40;35.10
78647;DHT22;67961;43.460;3.762;2023-08-31T10:56:30;29.40;34.50
78647;DHT22;67961;43.460;3.762;2023-08-31T10:59:00;29.40;34.90
78647;DHT22;67961;43.460;3.762;2023-08-31T11:01:55;29.40;34.10
78647;DHT22;67961;43.460;3.762;2023-08-31T11:04:25;29.20;34.90
78647;DHT22;67961;43.460;3.762;2023-08-31T11:07:11;29.40;34.10
78647;DHT22;67961;43.460;3.762;2023-08-31T11:09:37;29.10;34.80
78647;DHT22;67961;43.460;3.762;2023-08-31T11:12:03;29.20;36.10
78647;DHT22;67961;43.460;3.762;2023-08-31T11:14:29;29.30;34.50
78647;DHT22;67961;43.460;3.762;2023-08-31T11:16:55;29.30;34.60
78647;DHT22;67961;43.460;3.762;2023-08-31T11:19:21;29.20;34.50
78647;DHT22;67961;43.460;3.762;2023-08-31T11:21:47;29.00;35.10
78647;DHT22;67961;43.460;3.762;2023-08-31T11:24:12;29.10;36.50
78647;DHT22;67961;43.460;3.762;2023-08-31T11:26:38;29.10;36.50
78647;DHT22;67961;43.460;3.762;2023-08-31T11:29:07;29.00;36.00
78647;DHT22;67961;43.460;3.762;2023-08-31T11:31:38;29.00;35.90
78647;DHT22;67961;43.460;3.762;2023-08-31T11:34:17;29.00;36.10
78647;DHT22;67961;43.460;3.762;2023-08-31T11:36:44;29.10;36.40
78647;DHT22;67961;43.460;3.762;2023-08-31T11:39:14;29.10;35.80
78647;DHT22;67961;43.460;3.762;2023-08-31T11:41:41;29.00;36.20
78647;DHT22;67961;43.460;3.762;2023-08-31T11:44:12;28.90;36.70
78647;DHT22;67961;43.460;3.762;2023-08-31T11:46:39;29.00;35.30
78647;DHT22;67961;43.460;3.762;2023-08-31T11:49:07;28.90;34.70
78647;DHT22;67961;43.460;3.762;2023-08-31T11:51:34;29.00;35.10
78647;DHT22;67961;43.460;3.762;2023-08-31T11:54:04;29.10;35.20
78647;DHT22;67961;43.460;3.762;2023-08-31T11:59:12;29.10;35.70
78647;DHT22;67961;43.460;3.762;2023-08-31T12:01:42;29.10;35.90
78647;DHT22;67961;43.460;3.762;2023-08-31T12:04:15;28.90;36.70
78647;DHT22;67961;43.460;3.762;2023-08-31T12:06:41;28.80;37.30
78647;DHT22;67961;43.460;3.762;2023-08-31T12:09:08;28.50;38.50
78647;DHT22;67961;43.460;3.762;2023-08-31T12:11:34;28.30;38.40
78647;DHT22;67961;43.460;3.762;2023-08-31T12:14:01;28.30;37.20
78647;DHT22;67961;43.460;3.762;2023-08-31T12:16:36;28.00;37.50
78647;DHT22;67961;43.460;3.762;2023-08-31T12:19:02;27.70;38.40
78647;DHT22;67961;43.460;3.762;2023-08-31T12:21:28;28.00;37.60
78647;DHT22;67961;43.460;3.762;2023-08-31T12:23:54;28.30;37.80
78647;DHT22;67961;43.460;3.762;2023-08-31T12:26:20;28.30;37.60
78647;DHT22;67961;43.460;3.762;2023-08-31T12:28:45;28.30;38.10
78647;DHT22;67961;43.460;3.762;2023-08-31T12:31:11;28.10;37.60
78647;DHT22;67961;43.460;3.762;2023-08-31T12:33:36;27.80;37.40
78647;DHT22;67961;43.460;3.762;2023-08-31T12:36:02;27.70;37.60
78647;DHT22;67961;43.460;3.762;2023-08-31T12:38:28;27.60;38.00
78647;DHT22;67961;43.460;3.762;2023-08-31T12:40:53;27.80;37.80
78647;DHT22;67961;43.460;3.762;2023-08-31T12:43:20;28.10;37.20
78647;DHT22;67961;43.460;3.762;2023-08-31T12:45:45;28.20;37.00
78647;DHT22;67961;43.460;3.762;2023-08-31T12:48:11;28.00;36.90
78647;DHT22;67961;43.460;3.762;2023-08-31T12:50:36;28.10;37.20
78647;DHT22;67961;43.460;3.762;2023-08-31T12:53:02;28.10;36.60
78647;DHT22;67961;43.460;3.762;2023-08-31T12:55:28;27.90;37.00
78647;DHT22;67961;43.460;3.762;2023-08-31T12:57:56;28.00;36.70
78647;DHT22;67961;43.460;3.762;2023-08-31T13:00:22;28.00;37.00
78647;DHT22;67961;43.460;3.762;2023-08-31T13:02:48;28.30;36.50
78647;DHT22;67961;43.460;3.762;2023-08-31T13:05:15;28.20;36.60
78647;DHT22;67961;43.460;3.762;2023-08-31T13:07:41;28.30;36.70
78647;DHT22;67961;43.460;3.762;2023-08-31T13:10:07;28.30;36.50
78647;DHT22;67961;43.460;3.762;2023-08-31T13:12:33;28.30;36.70
78647;DHT22;67961;43.460;3.762;2023-08-31T13:14:59;28.40;35.80
78647;DHT22;67961;43.460;3.762;2023-08-31T13:17:26;28.30;38.60
78647;DHT22;67961;43.460;3.762;2023-08-31T13:19:56;27.80;40.60
78647;DHT22;67961;43.460;3.762;2023-08-31T13:22:25;27.20;42.00
78647;DHT22;67961;43.460;3.762;2023-08-31T13:24:51;27.10;43.00
78647;DHT22;67961;43.460;3.762;2023-08-31T13:27:17;27.10;43.30
78647;DHT22;67961;43.460;3.762;2023-08-31T13:29:43;26.90;43.90
78647;DHT22;67961;43.460;3.762;2023-08-31T13:32:12;26.80;44.50
78647;DHT22;67961;43.460;3.762;2023-08-31T13:34:38;26.70;44.10
78647;DHT22;67961;43.460;3.762;2023-08-31T13:37:04;26.70;44.30
78647;DHT22;67961;43.460;3.762;2023-08-31T13:39:31;26.70;43.90
78647;DHT22;67961;43.460;3.762;2023-08-31T13:41:57;26.70;44.30
78647;DHT22;67961;43.460;3.762;2023-08-31T13:44:22;26.70;43.90
78647;DHT22;67961;43.460;3.762;2023-08-31T13:46:49;26.70;43.40
78647;DHT22;67961;43.460;3.762;2023-08-31T13:49:15;26.60;43.20
78647;DHT22;67961;43.460;3.762;2023-08-31T13:51:41;26.80;41.00
78647;DHT22;67961;43.460;3.762;2023-08-31T13:54:07;26.80;41.70
78647;DHT22;67961;43.460;3.762;2023-08-31T13:56:35;26.70;41.10
78647;DHT22;67961;43.460;3.762;2023-08-31T13:59:01;27.10;39.60
78647;DHT22;67961;43.460;3.762;2023-08-31T14:01:27;27.50;38.30
78647;DHT22;67961;43.460;3.762;2023-08-31T14:03:52;27.50;41.00
78647;DHT22;67961;43.460;3.762;2023-08-31T14:06:18;27.40;41.20
78647;DHT22;67961;43.460;3.762;2023-08-31T14:08:44;27.20;42.20
78647;DHT22;67961;43.460;3.762;2023-08-31T14:11:10;27.10;42.20
78647;DHT22;67961;43.460;3.762;2023-08-31T14:13:35;26.90;42.30
78647;DHT22;67961;43.460;3.762;2023-08-31T14:16:01;27.10;41.50
78647;DHT22;67961;43.460;3.762;2023-08-31T14:18:27;27.40;41.00
78647;DHT22;67961;43.460;3.762;2023-08-31T14:20:58;27.50;40.00
78647;DHT22;67961;43.460;3.762;2023-08-31T14:23:27;27.70;40.20
78647;DHT22;67961;43.460;3.762;2023-08-31T14:25:52;27.70;39.70
78647;DHT22;67961;43.460;3.762;2023-08-31T14:28:18;27.70;40.30
78647;DHT22;67961;43.460;3.762;2023-08-31T14:30:44;27.50;40.50
78647;DHT22;67961;43.460;3.762;2023-08-31T14:33:09;27.40;41.90
78647;DHT22;67961;43.460;3.762;2023-08-31T14:35:38;27.20;43.10
78647;DHT22;67961;43.460;3.762;2023-08-31T14:38:05;26.90;44.30
78647;DHT22;67961;43.460;3.762;2023-08-31T14:40:31;26.60;44.90
78647;DHT22;67961;43.460;3.762;2023-08-31T14:42:59;26.50;45.10
78647;DHT22;67961;43.460;3.762;2023-08-31T14:45:25;26.40;45.50
78647;DHT22;67961;43.460;3.762;2023-08-31T14:47:51;26.30;45.70
78647;DHT22;67961;43.460;3.762;2023-08-31T14:50:17;26.20;45.70
78647;DHT22;67961;43.460;3.762;2023-08-31T14:52:42;26.10;45.10
78647;DHT22;67961;43.460;3.762;2023-08-31T14:55:08;26.10;45.40
78647;DHT22;67961;43.460;3.762;2023-08-31T14:57:34;26.30;44.40
78647;DHT22;67961;43.460;3.762;2023-08-31T14:59:59;26.20;44.20
78647;DHT22;67961;43.460;3.762;2023-08-31T15:02:25;26.20;44.40
78647;DHT22;67961;43.460;3.762;2023-08-31T15:04:51;26.20;44.80
78647;DHT22;67961;43.460;3.762;2023-08-31T15:07:20;26.30;44.10
78647;DHT22;67961;43.460;3.762;2023-08-31T15:09:46;26.40;44.90
78647;DHT22;67961;43.460;3.762;2023-08-31T15:12:12;26.40;44.80
78647;DHT22;67961;43.460;3.762;2023-08-31T15:14:38;26.40;44.90
78647;DHT22;67961;43.460;3.762;2023-08-31T15:17:05;26.40;44.30
78647;DHT22;67961;43.460;3.762;2023-08-31T15:19:30;26.50;43.70
78647;DHT22;67961;43.460;3.762;2023-08-31T15:22:01;26.50;43.20
78647;DHT22;67961;43.460;3.762;2023-08-31T15:24:28;26.40;43.00
78647;DHT22;67961;43.460;3.762;2023-08-31T15:26:53;26.40;42.70
78647;DHT22;67961;43.460;3.762;2023-08-31T15:29:20;26.50;43.00
78647;DHT22;67961;43.460;3.762;2023-08-31T15:31:46;26.50;43.70
78647;DHT22;67961;43.460;3.762;2023-08-31T15:34:12;26.50;44.70
78647;DHT22;67961;43.460;3.762;2023-08-31T15:36:38;26.40;45.00
78647;DHT22;67961;43.460;3.762;2023-08-31T15:39:04;26.40;45.00
78647;DHT22;67961;43.460;3.762;2023-08-31T15:41:29;26.40;44.50
78647;DHT22;67961;43.460;3.762;2023-08-31T15:44:00;26.30;44.00
78647;DHT22;67961;43.460;3.762;2023-08-31T15:46:26;26.40;43.90
78647;DHT22;67961;43.460;3.762;2023-08-31T15:48:52;26.40;44.00
78647;DHT22;67961;43.460;3.762;2023-08-31T15:51:17;26.40;43.30
78647;DHT22;67961;43.460;3.762;2023-08-31T15:53:43;26.30;42.60